sensor_id;sensor_type;location;lat;lon;timestamp;P1;durP1;ratioP1;P2;durP2;ratioP2
38567;SDS011;24338;48.280;10.970;2023-04-29T00:13:58;1.92;;;0.73;;
38567;SDS011;24338;48.280;10.970;2023-04-29T00:18:18;1.63;;;0.60;;
38567;SDS011;24338;48.280;10.970;2023-04-29T00:24:24;2.25;;;0.68;;
38567;SDS011;24338;48.280;10.970;2023-04-29T00:27:44;1.73;;;0.70;;
38567;SDS011;24338;48.280;10.970;2023-04-29T00:30:40;2.53;;;0.88;;
38567;SDS011;24338;48.280;10.970;2023-04-29T01:11:12;3.40;;;1.45;;
38567;SDS011;24338;48.280;10.970;2023-04-29T01:13:48;3.72;;;1.85;;
38567;SDS011;24338;48.280;10.970;2023-04-29T01:19:55;3.85;;;1.90;;
38567;SDS011;24338;48.280;10.970;2023-04-29T01:23:38;3.75;;;1.75;;
38567;SDS011;24338;48.280;10.970;2023-04-29T01:27:36;3.60;;;1.90;;
38567;SDS011;24338;48.280;10.970;2023-04-29T01:31:04;4.85;;;2.80;;
38567;SDS011;24338;48.280;10.970;2023-04-29T01:34:30;4.38;;;2.38;;
38567;SDS011;24338;48.280;10.970;2023-04-29T01:38:00;6.32;;;2.75;;
38567;SDS011;24338;48.280;10.970;2023-04-29T01:44:28;4.53;;;2.75;;
38567;SDS011;24338;48.280;10.970;2023-04-29T01:47:58;5.00;;;2.70;;
38567;SDS011;24338;48.280;10.970;2023-04-29T01:50:43;5.38;;;3.13;;
38567;SDS011;24338;48.280;10.970;2023-04-29T01:53:44;6.22;;;3.70;;
38567;SDS011;24338;48.280;10.970;2023-04-29T01:57:19;4.88;;;2.85;;
38567;SDS011;24338;48.280;10.970;2023-04-29T02:01:04;5.38;;;3.28;;
38567;SDS011;24338;48.280;10.970;2023-04-29T02:04:55;6.32;;;3.47;;
38567;SDS011;24338;48.280;10.970;2023-04-29T02:12:01;5.35;;;3.28;;
38567;SDS011;24338;48.280;10.970;2023-04-29T02:14:46;5.15;;;3.53;;
38567;SDS011;24338;48.280;10.970;2023-04-29T02:17:33;6.85;;;3.55;;
38567;SDS011;24338;48.280;10.970;2023-04-29T02:20:09;5.00;;;3.35;;
38567;SDS011;24338;48.280;10.970;2023-04-29T02:22:39;4.65;;;3.33;;
38567;SDS011;24338;48.280;10.970;2023-04-29T02:25:11;7.63;;;3.83;;
38567;SDS011;24338;48.280;10.970;2023-04-29T02:27:54;5.20;;;3.50;;
38567;SDS011;24338;48.280;10.970;2023-04-29T02:30:35;4.80;;;3.42;;
38567;SDS011;24338;48.280;10.970;2023-04-29T02:33:18;5.38;;;3.35;;
38567;SDS011;24338;48.280;10.970;2023-04-29T02:35:51;6.35;;;3.60;;
38567;SDS011;24338;48.280;10.970;2023-04-29T02:38:23;5.53;;;3.28;;
38567;SDS011;24338;48.280;10.970;2023-04-29T02:41:37;5.03;;;3.30;;
38567;SDS011;24338;48.280;10.970;2023-04-29T02:44:54;4.72;;;3.30;;
38567;SDS011;24338;48.280;10.970;2023-04-29T02:47:49;7.30;;;3.58;;
38567;SDS011;24338;48.280;10.970;2023-04-29T02:51:04;5.68;;;3.55;;
38567;SDS011;24338;48.280;10.970;2023-04-29T02:54:01;5.20;;;3.22;;
38567;SDS011;24338;48.280;10.970;2023-04-29T02:57:48;5.20;;;3.10;;
38567;SDS011;24338;48.280;10.970;2023-04-29T03:00:39;5.00;;;2.80;;
38567;SDS011;24338;48.280;10.970;2023-04-29T03:03:53;5.53;;;3.65;;
38567;SDS011;24338;48.280;10.970;2023-04-29T03:06:36;6.35;;;4.60;;
38567;SDS011;24338;48.280;10.970;2023-04-29T03:09:59;6.45;;;3.92;;
38567;SDS011;24338;48.280;10.970;2023-04-29T03:13:01;6.00;;;3.97;;
38567;SDS011;24338;48.280;10.970;2023-04-29T03:20:40;7.35;;;4.10;;
38567;SDS011;24338;48.280;10.970;2023-04-29T03:23:50;6.53;;;4.20;;
38567;SDS011;24338;48.280;10.970;2023-04-29T03:26:44;7.82;;;4.88;;
38567;SDS011;24338;48.280;10.970;2023-04-29T03:29:15;6.35;;;4.63;;
38567;SDS011;24338;48.280;10.970;2023-04-29T03:31:56;7.70;;;4.88;;
38567;SDS011;24338;48.280;10.970;2023-04-29T03:34:46;6.75;;;5.05;;
38567;SDS011;24338;48.280;10.970;2023-04-29T03:37:17;7.38;;;4.75;;
38567;SDS011;24338;48.280;10.970;2023-04-29T03:40:03;10.55;;;4.35;;
38567;SDS011;24338;48.280;10.970;2023-04-29T03:42:48;7.60;;;4.38;;
38567;SDS011;24338;48.280;10.970;2023-04-29T03:45:24;5.72;;;4.53;;
38567;SDS011;24338;48.280;10.970;2023-04-29T03:48:08;6.30;;;4.45;;
38567;SDS011;24338;48.280;10.970;2023-04-29T03:54:20;6.63;;;4.47;;
38567;SDS011;24338;48.280;10.970;2023-04-29T03:57:31;9.73;;;4.53;;
38567;SDS011;24338;48.280;10.970;2023-04-29T04:00:42;7.65;;;4.70;;
38567;SDS011;24338;48.280;10.970;2023-04-29T04:03:47;6.22;;;4.47;;
38567;SDS011;24338;48.280;10.970;2023-04-29T04:06:43;7.53;;;4.63;;
38567;SDS011;24338;48.280;10.970;2023-04-29T04:09:58;8.38;;;5.50;;
38567;SDS011;24338;48.280;10.970;2023-04-29T04:17:50;8.60;;;6.45;;
38567;SDS011;24338;48.280;10.970;2023-04-29T04:36:49;18.00;;;11.07;;
38567;SDS011;24338;48.280;10.970;2023-04-29T04:40:41;24.58;;;14.10;;
38567;SDS011;24338;48.280;10.970;2023-04-29T04:44:25;23.25;;;14.02;;
38567;SDS011;24338;48.280;10.970;2023-04-29T04:48:00;25.27;;;14.32;;
38567;SDS011;24338;48.280;10.970;2023-04-29T04:51:07;25.08;;;14.38;;
38567;SDS011;24338;48.280;10.970;2023-04-29T04:54:34;22.23;;;13.98;;
38567;SDS011;24338;48.280;10.970;2023-04-29T04:57:55;23.33;;;14.38;;
38567;SDS011;24338;48.280;10.970;2023-04-29T05:01:15;27.45;;;15.65;;
38567;SDS011;24338;48.280;10.970;2023-04-29T05:04:11;25.98;;;15.63;;
38567;SDS011;24338;48.280;10.970;2023-04-29T05:07:46;26.67;;;15.85;;
38567;SDS011;24338;48.280;10.970;2023-04-29T05:11:24;26.60;;;15.10;;
38567;SDS011;24338;48.280;10.970;2023-04-29T05:14:40;29.65;;;16.95;;
38567;SDS011;24338;48.280;10.970;2023-04-29T05:18:19;21.25;;;15.75;;
38567;SDS011;24338;48.280;10.970;2023-04-29T05:26:16;25.10;;;15.95;;
38567;SDS011;24338;48.280;10.970;2023-04-29T05:29:43;26.67;;;15.95;;
38567;SDS011;24338;48.280;10.970;2023-04-29T05:33:29;23.25;;;15.73;;
38567;SDS011;24338;48.280;10.970;2023-04-29T05:44:52;21.50;;;15.35;;
38567;SDS011;24338;48.280;10.970;2023-04-29T05:48:49;22.92;;;15.52;;
38567;SDS011;24338;48.280;10.970;2023-04-29T05:53:05;20.95;;;13.73;;
38567;SDS011;24338;48.280;10.970;2023-04-29T05:56:07;21.10;;;14.27;;
38567;SDS011;24338;48.280;10.970;2023-04-29T05:58:34;20.63;;;13.73;;
38567;SDS011;24338;48.280;10.970;2023-04-29T06:01:01;18.02;;;13.23;;
38567;SDS011;24338;48.280;10.970;2023-04-29T06:03:28;18.88;;;13.25;;
38567;SDS011;24338;48.280;10.970;2023-04-29T06:05:56;19.35;;;14.38;;
38567;SDS011;24338;48.280;10.970;2023-04-29T06:08:24;16.25;;;13.20;;
38567;SDS011;24338;48.280;10.970;2023-04-29T06:10:51;17.92;;;13.00;;
38567;SDS011;24338;48.280;10.970;2023-04-29T06:13:18;15.02;;;12.23;;
38567;SDS011;24338;48.280;10.970;2023-04-29T06:15:44;14.68;;;12.02;;
38567;SDS011;24338;48.280;10.970;2023-04-29T06:18:11;17.00;;;12.75;;
38567;SDS011;24338;48.280;10.970;2023-04-29T06:20:38;15.13;;;12.30;;
38567;SDS011;24338;48.280;10.970;2023-04-29T06:23:05;14.30;;;11.25;;
38567;SDS011;24338;48.280;10.970;2023-04-29T06:25:32;15.45;;;12.05;;
38567;SDS011;24338;48.280;10.970;2023-04-29T06:27:59;12.60;;;10.55;;
38567;SDS011;24338;48.280;10.970;2023-04-29T06:30:26;14.98;;;10.75;;
38567;SDS011;24338;48.280;10.970;2023-04-29T06:32:53;15.20;;;9.32;;
38567;SDS011;24338;48.280;10.970;2023-04-29T06:35:23;12.30;;;9.65;;
38567;SDS011;24338;48.280;10.970;2023-04-29T06:38:37;11.98;;;10.10;;
38567;SDS011;24338;48.280;10.970;2023-04-29T06:41:18;11.55;;;9.18;;
38567;SDS011;24338;48.280;10.970;2023-04-29T06:43:45;9.35;;;8.13;;
38567;SDS011;24338;48.280;10.970;2023-04-29T06:46:14;9.85;;;7.18;;
38567;SDS011;24338;48.280;10.970;2023-04-29T06:48:41;8.50;;;6.47;;
38567;SDS011;24338;48.280;10.970;2023-04-29T06:51:08;8.43;;;6.05;;
38567;SDS011;24338;48.280;10.970;2023-04-29T06:53:35;8.80;;;6.07;;
38567;SDS011;24338;48.280;10.970;2023-04-29T06:56:02;8.70;;;5.75;;
38567;SDS011;24338;48.280;10.970;2023-04-29T06:58:29;7.07;;;5.95;;
38567;SDS011;24338;48.280;10.970;2023-04-29T07:00:55;8.77;;;6.43;;
38567;SDS011;24338;48.280;10.970;2023-04-29T07:03:22;7.68;;;5.35;;
38567;SDS011;24338;48.280;10.970;2023-04-29T07:05:49;5.53;;;4.70;;
38567;SDS011;24338;48.280;10.970;2023-04-29T07:08:16;8.45;;;4.80;;
38567;SDS011;24338;48.280;10.970;2023-04-29T07:10:43;7.68;;;4.22;;
38567;SDS011;24338;48.280;10.970;2023-04-29T07:13:09;8.73;;;4.80;;
38567;SDS011;24338;48.280;10.970;2023-04-29T07:15:36;5.75;;;4.07;;
38567;SDS011;24338;48.280;10.970;2023-04-29T07:18:04;5.85;;;4.03;;
38567;SDS011;24338;48.280;10.970;2023-04-29T07:20:31;5.78;;;3.75;;
38567;SDS011;24338;48.280;10.970;2023-04-29T07:22:58;4.90;;;4.13;;
38567;SDS011;24338;48.280;10.970;2023-04-29T07:25:25;4.47;;;3.25;;
38567;SDS011;24338;48.280;10.970;2023-04-29T07:27:54;4.10;;;3.08;;
38567;SDS011;24338;48.280;10.970;2023-04-29T07:30:23;7.03;;;3.38;;
38567;SDS011;24338;48.280;10.970;2023-04-29T07:33:05;6.97;;;4.13;;
38567;SDS011;24338;48.280;10.970;2023-04-29T07:35:31;6.10;;;3.35;;
38567;SDS011;24338;48.280;10.970;2023-04-29T07:37:58;6.00;;;3.42;;
38567;SDS011;24338;48.280;10.970;2023-04-29T07:40:25;6.20;;;3.13;;
38567;SDS011;24338;48.280;10.970;2023-04-29T07:42:52;4.72;;;3.50;;
38567;SDS011;24338;48.280;10.970;2023-04-29T07:45:19;4.55;;;2.72;;
38567;SDS011;24338;48.280;10.970;2023-04-29T07:47:45;6.15;;;2.58;;
38567;SDS011;24338;48.280;10.970;2023-04-29T07:50:12;6.00;;;3.30;;
38567;SDS011;24338;48.280;10.970;2023-04-29T07:52:39;4.05;;;2.88;;
38567;SDS011;24338;48.280;10.970;2023-04-29T07:55:06;5.93;;;3.22;;
38567;SDS011;24338;48.280;10.970;2023-04-29T07:57:34;3.97;;;2.45;;
38567;SDS011;24338;48.280;10.970;2023-04-29T08:00:00;4.80;;;2.42;;
38567;SDS011;24338;48.280;10.970;2023-04-29T08:02:27;4.65;;;2.63;;
38567;SDS011;24338;48.280;10.970;2023-04-29T08:04:54;5.18;;;1.95;;
38567;SDS011;24338;48.280;10.970;2023-04-29T08:07:22;5.10;;;2.33;;
38567;SDS011;24338;48.280;10.970;2023-04-29T08:09:49;3.58;;;2.03;;
38567;SDS011;24338;48.280;10.970;2023-04-29T08:12:16;4.78;;;2.17;;
38567;SDS011;24338;48.280;10.970;2023-04-29T08:14:43;3.70;;;2.05;;
38567;SDS011;24338;48.280;10.970;2023-04-29T08:17:10;4.28;;;1.67;;
38567;SDS011;24338;48.280;10.970;2023-04-29T08:19:37;4.28;;;2.13;;
38567;SDS011;24338;48.280;10.970;2023-04-29T08:22:03;8.43;;;2.75;;
38567;SDS011;24338;48.280;10.970;2023-04-29T08:24:30;2.53;;;1.67;;
38567;SDS011;24338;48.280;10.970;2023-04-29T08:26:59;3.38;;;1.38;;
38567;SDS011;24338;48.280;10.970;2023-04-29T08:29:26;5.80;;;1.70;;
38567;SDS011;24338;48.280;10.970;2023-04-29T08:31:53;3.35;;;1.15;;
38567;SDS011;24338;48.280;10.970;2023-04-29T08:34:20;3.80;;;1.58;;
38567;SDS011;24338;48.280;10.970;2023-04-29T08:36:47;4.93;;;1.42;;
38567;SDS011;24338;48.280;10.970;2023-04-29T08:39:14;6.10;;;1.65;;
38567;SDS011;24338;48.280;10.970;2023-04-29T08:41:41;4.70;;;1.55;;
38567;SDS011;24338;48.280;10.970;2023-04-29T08:44:10;4.43;;;1.38;;
38567;SDS011;24338;48.280;10.970;2023-04-29T08:46:37;3.63;;;1.33;;
38567;SDS011;24338;48.280;10.970;2023-04-29T08:49:05;2.53;;;1.23;;
38567;SDS011;24338;48.280;10.970;2023-04-29T08:51:32;4.15;;;1.23;;
38567;SDS011;24338;48.280;10.970;2023-04-29T08:54:00;4.03;;;1.05;;
38567;SDS011;24338;48.280;10.970;2023-04-29T08:56:26;3.75;;;1.30;;
38567;SDS011;24338;48.280;10.970;2023-04-29T08:58:56;3.50;;;1.30;;
38567;SDS011;24338;48.280;10.970;2023-04-29T09:01:27;3.55;;;1.48;;
38567;SDS011;24338;48.280;10.970;2023-04-29T09:06:35;3.05;;;0.90;;
38567;SDS011;24338;48.280;10.970;2023-04-29T09:09:01;3.35;;;1.10;;
38567;SDS011;24338;48.280;10.970;2023-04-29T09:11:29;3.08;;;1.10;;
38567;SDS011;24338;48.280;10.970;2023-04-29T09:13:59;2.67;;;0.82;;
38567;SDS011;24338;48.280;10.970;2023-04-29T09:16:27;3.30;;;1.43;;
38567;SDS011;24338;48.280;10.970;2023-04-29T09:18:54;3.20;;;1.20;;
38567;SDS011;24338;48.280;10.970;2023-04-29T09:21:23;5.28;;;1.30;;
38567;SDS011;24338;48.280;10.970;2023-04-29T09:23:53;3.53;;;1.30;;
38567;SDS011;24338;48.280;10.970;2023-04-29T09:26:21;3.72;;;1.17;;
38567;SDS011;24338;48.280;10.970;2023-04-29T09:31:36;2.50;;;1.20;;
38567;SDS011;24338;48.280;10.970;2023-04-29T09:34:05;6.70;;;1.88;;
38567;SDS011;24338;48.280;10.970;2023-04-29T09:39:09;3.97;;;1.50;;
38567;SDS011;24338;48.280;10.970;2023-04-29T09:42:01;2.05;;;1.13;;
38567;SDS011;24338;48.280;10.970;2023-04-29T09:44:29;5.68;;;1.00;;
38567;SDS011;24338;48.280;10.970;2023-04-29T09:47:03;4.63;;;1.38;;
38567;SDS011;24338;48.280;10.970;2023-04-29T09:52:04;1.88;;;1.10;;
38567;SDS011;24338;48.280;10.970;2023-04-29T09:54:36;4.03;;;1.58;;
38567;SDS011;24338;48.280;10.970;2023-04-29T09:57:05;2.08;;;1.08;;
38567;SDS011;24338;48.280;10.970;2023-04-29T09:59:34;2.75;;;1.05;;
38567;SDS011;24338;48.280;10.970;2023-04-29T10:02:15;4.72;;;1.10;;
38567;SDS011;24338;48.280;10.970;2023-04-29T10:04:44;4.90;;;1.65;;
38567;SDS011;24338;48.280;10.970;2023-04-29T10:07:13;1.35;;;0.60;;
38567;SDS011;24338;48.280;10.970;2023-04-29T10:09:43;2.55;;;0.70;;
38567;SDS011;24338;48.280;10.970;2023-04-29T10:12:14;6.78;;;2.28;;
38567;SDS011;24338;48.280;10.970;2023-04-29T10:14:44;2.97;;;1.00;;
38567;SDS011;24338;48.280;10.970;2023-04-29T10:20:12;1.38;;;0.70;;
38567;SDS011;24338;48.280;10.970;2023-04-29T10:22:46;3.70;;;0.90;;
38567;SDS011;24338;48.280;10.970;2023-04-29T10:25:16;2.33;;;0.80;;
38567;SDS011;24338;48.280;10.970;2023-04-29T10:27:45;1.58;;;0.60;;
38567;SDS011;24338;48.280;10.970;2023-04-29T10:30:14;5.65;;;1.05;;
38567;SDS011;24338;48.280;10.970;2023-04-29T10:32:43;3.72;;;0.77;;
38567;SDS011;24338;48.280;10.970;2023-04-29T10:35:14;3.00;;;0.73;;
38567;SDS011;24338;48.280;10.970;2023-04-29T10:37:44;2.45;;;0.70;;
38567;SDS011;24338;48.280;10.970;2023-04-29T10:42:58;0.95;;;0.50;;
38567;SDS011;24338;48.280;10.970;2023-04-29T10:45:31;1.80;;;0.50;;
38567;SDS011;24338;48.280;10.970;2023-04-29T10:53:16;3.10;;;0.68;;
38567;SDS011;24338;48.280;10.970;2023-04-29T10:55:48;1.38;;;0.60;;
38567;SDS011;24338;48.280;10.970;2023-04-29T10:58:41;0.77;;;0.40;;
38567;SDS011;24338;48.280;10.970;2023-04-29T11:01:13;2.80;;;0.50;;
38567;SDS011;24338;48.280;10.970;2023-04-29T11:06:12;2.20;;;0.57;;
38567;SDS011;24338;48.280;10.970;2023-04-29T11:08:38;1.45;;;0.60;;
38567;SDS011;24338;48.280;10.970;2023-04-29T11:11:06;2.88;;;0.50;;
38567;SDS011;24338;48.280;10.970;2023-04-29T11:13:37;3.55;;;0.68;;
38567;SDS011;24338;48.280;10.970;2023-04-29T11:16:11;1.30;;;0.50;;
38567;SDS011;24338;48.280;10.970;2023-04-29T11:21:35;0.80;;;0.40;;
38567;SDS011;24338;48.280;10.970;2023-04-29T11:24:03;3.03;;;0.65;;
38567;SDS011;24338;48.280;10.970;2023-04-29T11:26:35;2.25;;;0.52;;
38567;SDS011;24338;48.280;10.970;2023-04-29T11:29:03;1.20;;;0.53;;
38567;SDS011;24338;48.280;10.970;2023-04-29T11:31:31;1.48;;;0.50;;
38567;SDS011;24338;48.280;10.970;2023-04-29T11:33:59;2.33;;;0.52;;
38567;SDS011;24338;48.280;10.970;2023-04-29T11:36:26;1.73;;;0.40;;
38567;SDS011;24338;48.280;10.970;2023-04-29T11:38:53;1.23;;;0.40;;
38567;SDS011;24338;48.280;10.970;2023-04-29T11:41:21;1.50;;;0.45;;
38567;SDS011;24338;48.280;10.970;2023-04-29T11:43:54;2.00;;;0.60;;
38567;SDS011;24338;48.280;10.970;2023-04-29T11:46:23;2.63;;;0.40;;
38567;SDS011;24338;48.280;10.970;2023-04-29T11:48:50;0.60;;;0.30;;
38567;SDS011;24338;48.280;10.970;2023-04-29T11:51:19;5.00;;;0.52;;
38567;SDS011;24338;48.280;10.970;2023-04-29T11:53:47;1.40;;;0.55;;
38567;SDS011;24338;48.280;10.970;2023-04-29T11:56:14;2.35;;;0.50;;
38567;SDS011;24338;48.280;10.970;2023-04-29T11:58:41;3.72;;;0.50;;
38567;SDS011;24338;48.280;10.970;2023-04-29T12:01:09;4.63;;;1.45;;
38567;SDS011;24338;48.280;10.970;2023-04-29T12:03:36;2.05;;;0.40;;
38567;SDS011;24338;48.280;10.970;2023-04-29T12:06:03;2.85;;;0.90;;
38567;SDS011;24338;48.280;10.970;2023-04-29T12:08:33;5.40;;;0.60;;
38567;SDS011;24338;48.280;10.970;2023-04-29T12:11:00;1.67;;;0.50;;
38567;SDS011;24338;48.280;10.970;2023-04-29T12:13:28;1.17;;;0.30;;
38567;SDS011;24338;48.280;10.970;2023-04-29T12:15:56;1.83;;;0.32;;
38567;SDS011;24338;48.280;10.970;2023-04-29T12:18:24;1.17;;;0.40;;
38567;SDS011;24338;48.280;10.970;2023-04-29T12:20:53;3.75;;;0.35;;
38567;SDS011;24338;48.280;10.970;2023-04-29T12:25:58;1.48;;;0.30;;
38567;SDS011;24338;48.280;10.970;2023-04-29T12:28:25;2.83;;;0.85;;
38567;SDS011;24338;48.280;10.970;2023-04-29T12:30:53;1.45;;;0.20;;
38567;SDS011;24338;48.280;10.970;2023-04-29T12:33:20;4.55;;;0.60;;
38567;SDS011;24338;48.280;10.970;2023-04-29T12:35:49;1.40;;;0.30;;
38567;SDS011;24338;48.280;10.970;2023-04-29T12:38:34;4.22;;;0.40;;
38567;SDS011;24338;48.280;10.970;2023-04-29T12:41:01;1.88;;;0.30;;
38567;SDS011;24338;48.280;10.970;2023-04-29T12:43:29;1.60;;;0.50;;
38567;SDS011;24338;48.280;10.970;2023-04-29T12:46:04;1.70;;;0.30;;
38567;SDS011;24338;48.280;10.970;2023-04-29T12:48:33;1.95;;;0.32;;
38567;SDS011;24338;48.280;10.970;2023-04-29T12:51:03;2.92;;;0.75;;
38567;SDS011;24338;48.280;10.970;2023-04-29T12:53:30;8.15;;;2.03;;
38567;SDS011;24338;48.280;10.970;2023-04-29T12:55:58;1.35;;;0.57;;
38567;SDS011;24338;48.280;10.970;2023-04-29T12:58:28;6.13;;;1.40;;
38567;SDS011;24338;48.280;10.970;2023-04-29T13:00:56;4.18;;;1.52;;
38567;SDS011;24338;48.280;10.970;2023-04-29T13:03:23;2.85;;;0.70;;
38567;SDS011;24338;48.280;10.970;2023-04-29T13:05:50;2.60;;;0.88;;
38567;SDS011;24338;48.280;10.970;2023-04-29T13:08:20;7.40;;;2.53;;
38567;SDS011;24338;48.280;10.970;2023-04-29T13:10:47;3.40;;;1.08;;
38567;SDS011;24338;48.280;10.970;2023-04-29T13:13:13;16.15;;;4.03;;
38567;SDS011;24338;48.280;10.970;2023-04-29T13:15:41;11.27;;;2.50;;
38567;SDS011;24338;48.280;10.970;2023-04-29T13:18:08;5.00;;;1.95;;
38567;SDS011;24338;48.280;10.970;2023-04-29T13:20:38;1.58;;;0.70;;
38567;SDS011;24338;48.280;10.970;2023-04-29T13:23:08;4.43;;;0.90;;
38567;SDS011;24338;48.280;10.970;2023-04-29T13:25:35;1.30;;;0.40;;
38567;SDS011;24338;48.280;10.970;2023-04-29T13:28:02;2.20;;;0.68;;
38567;SDS011;24338;48.280;10.970;2023-04-29T13:30:30;1.38;;;0.50;;
38567;SDS011;24338;48.280;10.970;2023-04-29T13:32:58;2.42;;;0.80;;
38567;SDS011;24338;48.280;10.970;2023-04-29T13:35:36;3.90;;;0.50;;
38567;SDS011;24338;48.280;10.970;2023-04-29T13:38:05;1.88;;;0.40;;
38567;SDS011;24338;48.280;10.970;2023-04-29T13:40:32;16.00;;;5.68;;
38567;SDS011;24338;48.280;10.970;2023-04-29T13:43:05;0.85;;;0.50;;
38567;SDS011;24338;48.280;10.970;2023-04-29T13:45:35;4.22;;;0.77;;
38567;SDS011;24338;48.280;10.970;2023-04-29T13:48:08;1.10;;;0.30;;
38567;SDS011;24338;48.280;10.970;2023-04-29T13:50:55;2.03;;;0.35;;
38567;SDS011;24338;48.280;10.970;2023-04-29T13:53:25;1.55;;;0.30;;
38567;SDS011;24338;48.280;10.970;2023-04-29T13:55:55;4.80;;;1.15;;
38567;SDS011;24338;48.280;10.970;2023-04-29T13:58:24;7.75;;;1.20;;
38567;SDS011;24338;48.280;10.970;2023-04-29T14:00:54;3.60;;;0.50;;
38567;SDS011;24338;48.280;10.970;2023-04-29T14:03:24;5.55;;;1.23;;
38567;SDS011;24338;48.280;10.970;2023-04-29T14:05:51;1.20;;;0.40;;
38567;SDS011;24338;48.280;10.970;2023-04-29T14:08:18;4.07;;;0.40;;
38567;SDS011;24338;48.280;10.970;2023-04-29T14:10:45;1.55;;;0.45;;
38567;SDS011;24338;48.280;10.970;2023-04-29T14:13:13;4.90;;;0.60;;
38567;SDS011;24338;48.280;10.970;2023-04-29T14:15:39;0.82;;;0.40;;
38567;SDS011;24338;48.280;10.970;2023-04-29T14:18:06;3.10;;;0.40;;
38567;SDS011;24338;48.280;10.970;2023-04-29T14:20:34;5.15;;;1.45;;
38567;SDS011;24338;48.280;10.970;2023-04-29T14:23:01;1.00;;;0.25;;
38567;SDS011;24338;48.280;10.970;2023-04-29T14:25:28;1.52;;;0.75;;
38567;SDS011;24338;48.280;10.970;2023-04-29T14:27:58;1.10;;;0.30;;
38567;SDS011;24338;48.280;10.970;2023-04-29T14:30:25;1.60;;;0.47;;
38567;SDS011;24338;48.280;10.970;2023-04-29T14:32:51;2.78;;;0.85;;
38567;SDS011;24338;48.280;10.970;2023-04-29T14:35:18;4.03;;;1.25;;
38567;SDS011;24338;48.280;10.970;2023-04-29T14:37:45;2.13;;;1.15;;
38567;SDS011;24338;48.280;10.970;2023-04-29T14:40:12;2.10;;;1.27;;
38567;SDS011;24338;48.280;10.970;2023-04-29T14:42:39;4.45;;;1.20;;
38567;SDS011;24338;48.280;10.970;2023-04-29T14:45:06;3.40;;;1.17;;
38567;SDS011;24338;48.280;10.970;2023-04-29T14:47:33;4.70;;;1.20;;
38567;SDS011;24338;48.280;10.970;2023-04-29T14:50:00;1.83;;;0.82;;
38567;SDS011;24338;48.280;10.970;2023-04-29T14:52:27;2.30;;;0.70;;
38567;SDS011;24338;48.280;10.970;2023-04-29T14:54:53;3.75;;;0.93;;
38567;SDS011;24338;48.280;10.970;2023-04-29T14:57:21;1.90;;;0.80;;
38567;SDS011;24338;48.280;10.970;2023-04-29T14:59:48;2.75;;;1.13;;
38567;SDS011;24338;48.280;10.970;2023-04-29T15:02:15;2.75;;;0.70;;
38567;SDS011;24338;48.280;10.970;2023-04-29T15:04:42;4.65;;;1.00;;
38567;SDS011;24338;48.280;10.970;2023-04-29T15:07:11;2.35;;;0.93;;
38567;SDS011;24338;48.280;10.970;2023-04-29T15:09:39;1.60;;;0.80;;
38567;SDS011;24338;48.280;10.970;2023-04-29T15:12:06;1.67;;;1.00;;
38567;SDS011;24338;48.280;10.970;2023-04-29T15:14:33;2.08;;;0.80;;
38567;SDS011;24338;48.280;10.970;2023-04-29T15:17:00;2.75;;;1.35;;
38567;SDS011;24338;48.280;10.970;2023-04-29T15:19:27;2.10;;;0.82;;
38567;SDS011;24338;48.280;10.970;2023-04-29T15:21:54;1.70;;;0.90;;
38567;SDS011;24338;48.280;10.970;2023-04-29T15:24:21;3.30;;;1.00;;
38567;SDS011;24338;48.280;10.970;2023-04-29T15:26:48;2.85;;;0.90;;
38567;SDS011;24338;48.280;10.970;2023-04-29T15:29:17;4.72;;;1.00;;
38567;SDS011;24338;48.280;10.970;2023-04-29T15:31:43;4.65;;;0.60;;
38567;SDS011;24338;48.280;10.970;2023-04-29T15:34:10;1.08;;;0.50;;
38567;SDS011;24338;48.280;10.970;2023-04-29T15:36:37;1.58;;;0.60;;
38567;SDS011;24338;48.280;10.970;2023-04-29T15:39:04;2.63;;;0.88;;
38567;SDS011;24338;48.280;10.970;2023-04-29T15:41:31;3.20;;;1.27;;
38567;SDS011;24338;48.280;10.970;2023-04-29T15:43:58;3.83;;;1.77;;
38567;SDS011;24338;48.280;10.970;2023-04-29T15:46:25;3.40;;;1.50;;
38567;SDS011;24338;48.280;10.970;2023-04-29T15:48:53;2.78;;;1.75;;
38567;SDS011;24338;48.280;10.970;2023-04-29T15:51:19;3.28;;;1.30;;
38567;SDS011;24338;48.280;10.970;2023-04-29T15:53:46;3.88;;;1.52;;
38567;SDS011;24338;48.280;10.970;2023-04-29T15:56:14;2.97;;;1.23;;
38567;SDS011;24338;48.280;10.970;2023-04-29T15:58:40;3.45;;;1.45;;
38567;SDS011;24338;48.280;10.970;2023-04-29T16:01:07;3.53;;;1.67;;
38567;SDS011;24338;48.280;10.970;2023-04-29T16:03:34;3.15;;;2.05;;
38567;SDS011;24338;48.280;10.970;2023-04-29T16:06:01;4.60;;;2.20;;
38567;SDS011;24338;48.280;10.970;2023-04-29T16:08:28;8.15;;;1.90;;
38567;SDS011;24338;48.280;10.970;2023-04-29T16:10:55;4.22;;;1.73;;
38567;SDS011;24338;48.280;10.970;2023-04-29T16:13:22;4.88;;;2.10;;
38567;SDS011;24338;48.280;10.970;2023-04-29T16:15:49;4.57;;;2.35;;
38567;SDS011;24338;48.280;10.970;2023-04-29T16:18:15;4.95;;;2.53;;
38567;SDS011;24338;48.280;10.970;2023-04-29T16:20:43;4.78;;;2.58;;
38567;SDS011;24338;48.280;10.970;2023-04-29T16:23:10;4.63;;;2.95;;
38567;SDS011;24338;48.280;10.970;2023-04-29T16:25:38;5.50;;;2.55;;
38567;SDS011;24338;48.280;10.970;2023-04-29T16:28:06;4.45;;;2.90;;
38567;SDS011;24338;48.280;10.970;2023-04-29T16:30:33;5.78;;;2.63;;
38567;SDS011;24338;48.280;10.970;2023-04-29T16:33:01;5.13;;;2.92;;
38567;SDS011;24338;48.280;10.970;2023-04-29T16:35:27;4.65;;;2.33;;
38567;SDS011;24338;48.280;10.970;2023-04-29T16:37:56;4.75;;;2.22;;
38567;SDS011;24338;48.280;10.970;2023-04-29T16:40:22;5.55;;;2.72;;
38567;SDS011;24338;48.280;10.970;2023-04-29T16:42:49;3.60;;;2.08;;
38567;SDS011;24338;48.280;10.970;2023-04-29T16:45:18;3.53;;;2.20;;
38567;SDS011;24338;48.280;10.970;2023-04-29T16:47:48;3.25;;;2.00;;
38567;SDS011;24338;48.280;10.970;2023-04-29T16:50:15;3.25;;;2.10;;
38567;SDS011;24338;48.280;10.970;2023-04-29T16:52:43;5.20;;;2.85;;
38567;SDS011;24338;48.280;10.970;2023-04-29T16:55:10;4.68;;;2.60;;
38567;SDS011;24338;48.280;10.970;2023-04-29T16:57:38;5.10;;;2.78;;
38567;SDS011;24338;48.280;10.970;2023-04-29T17:00:05;5.05;;;2.90;;
38567;SDS011;24338;48.280;10.970;2023-04-29T17:02:36;3.67;;;2.47;;
38567;SDS011;24338;48.280;10.970;2023-04-29T17:05:06;3.58;;;1.95;;
38567;SDS011;24338;48.280;10.970;2023-04-29T17:07:36;3.77;;;2.50;;
38567;SDS011;24338;48.280;10.970;2023-04-29T17:10:03;4.82;;;3.30;;
38567;SDS011;24338;48.280;10.970;2023-04-29T17:12:31;5.15;;;2.85;;
38567;SDS011;24338;48.280;10.970;2023-04-29T17:14:58;3.97;;;2.80;;
38567;SDS011;24338;48.280;10.970;2023-04-29T17:17:25;4.15;;;2.72;;
38567;SDS011;24338;48.280;10.970;2023-04-29T17:19:52;7.72;;;3.80;;
38567;SDS011;24338;48.280;10.970;2023-04-29T17:22:21;6.70;;;3.70;;
38567;SDS011;24338;48.280;10.970;2023-04-29T17:24:48;6.60;;;4.10;;
38567;SDS011;24338;48.280;10.970;2023-04-29T17:27:16;7.65;;;3.92;;
38567;SDS011;24338;48.280;10.970;2023-04-29T17:29:43;5.07;;;3.60;;
38567;SDS011;24338;48.280;10.970;2023-04-29T17:32:10;6.63;;;4.40;;
38567;SDS011;24338;48.280;10.970;2023-04-29T17:34:40;7.13;;;3.92;;
38567;SDS011;24338;48.280;10.970;2023-04-29T17:37:07;6.03;;;4.40;;
38567;SDS011;24338;48.280;10.970;2023-04-29T17:39:34;6.63;;;4.18;;
38567;SDS011;24338;48.280;10.970;2023-04-29T17:42:01;5.20;;;4.13;;
38567;SDS011;24338;48.280;10.970;2023-04-29T17:44:28;6.00;;;4.47;;
38567;SDS011;24338;48.280;10.970;2023-04-29T17:46:55;9.60;;;4.95;;